createdAt,value
2016-02-21T00:00:06.052Z,8.36
2016-02-21T00:01:06.088Z,8.28
2016-02-21T00:02:06.043Z,8.28
2016-02-21T00:03:06.047Z,8.36
2016-02-21T00:04:06.049Z,8.32
2016-02-21T00:05:06.068Z,8.42
2016-02-21T00:06:06.055Z,8.45
2016-02-21T00:07:06.057Z,8.45
2016-02-21T00:08:06.076Z,8.42
2016-02-21T00:09:06.046Z,8.52
2016-02-21T00:10:06.065Z,8.44
2016-02-21T00:11:06.052Z,8.57
2016-02-21T00:12:06.040Z,8.53
2016-02-21T00:13:06.057Z,8.44
2016-02-21T00:14:06.045Z,8.52
2016-02-21T00:15:06.047Z,8.49
2016-02-21T00:16:06.050Z,8.54
2016-02-21T00:17:06.053Z,8.59
2016-02-21T00:18:06.056Z,8.6
2016-02-21T00:19:06.059Z,8.64
2016-02-21T00:20:06.045Z,8.68
2016-02-21T00:21:06.095Z,8.69
2016-02-21T00:22:06.066Z,8.74
2016-02-21T00:23:06.069Z,8.71
2016-02-21T00:24:06.056Z,8.78
2016-02-21T00:25:06.058Z,8.71
2016-02-21T00:26:06.062Z,8.87
2016-02-21T00:27:06.064Z,8.87
2016-02-21T00:28:06.051Z,8.92
2016-02-21T00:29:06.053Z,8.86
2016-02-21T00:30:06.056Z,8.89
2016-02-21T00:31:06.091Z,8.97
2016-02-21T00:32:06.047Z,8.93
2016-02-21T00:33:06.080Z,9
2016-02-21T00:34:06.052Z,9.03
2016-02-21T00:35:06.055Z,8.92
2016-02-21T00:36:06.072Z,8.95
2016-02-21T00:37:06.059Z,8.95
2016-02-21T00:38:06.062Z,8.99
2016-02-21T00:39:06.066Z,8.95
2016-02-21T00:40:06.068Z,8.97
2016-02-21T00:41:06.054Z,9.03
2016-02-21T00:42:06.057Z,9
2016-02-21T00:43:06.059Z,8.93
2016-02-21T00:44:06.063Z,8.92
2016-02-21T00:45:06.066Z,9.02
2016-02-21T00:46:06.068Z,8.96
2016-02-21T00:47:06.071Z,8.93
2016-02-21T00:48:06.089Z,8.89
2016-02-21T00:49:06.061Z,9
2016-02-21T00:50:06.063Z,8.97
2016-02-21T00:51:06.066Z,8.9
2016-02-21T00:52:06.070Z,9
2016-02-21T00:53:06.072Z,8.96
2016-02-21T00:54:06.075Z,8.89
2016-02-21T00:55:06.061Z,8.96
2016-02-21T00:56:06.079Z,9
2016-02-21T00:57:06.067Z,8.99
2016-02-21T00:58:06.086Z,8.9
2016-02-21T00:59:06.072Z,9
2016-02-21T01:00:06.059Z,8.97
2016-02-21T01:01:06.078Z,8.97
2016-02-21T01:02:06.064Z,8.97
2016-02-21T01:03:06.066Z,9.05
2016-02-21T01:04:06.085Z,9.05
2016-02-21T01:05:06.073Z,9.08
2016-02-21T01:06:06.075Z,8.99
2016-02-21T01:07:06.078Z,9.11
2016-02-21T01:08:06.080Z,9.02
2016-02-21T01:09:06.083Z,9
2016-02-21T01:10:06.071Z,9.02
2016-02-21T01:11:06.088Z,9
2016-02-21T01:12:06.075Z,9.05
2016-02-21T01:13:06.079Z,8.95
2016-02-21T01:14:06.081Z,9.05
2016-02-21T01:15:06.084Z,9.02
2016-02-21T01:16:06.086Z,9.05
2016-02-21T01:17:06.073Z,9.08
2016-02-21T01:18:06.093Z,9
2016-02-21T01:19:06.079Z,9.02
2016-02-21T01:20:06.082Z,9
2016-02-21T01:21:06.084Z,9.05
2016-02-21T01:22:06.071Z,9.05
2016-02-21T01:23:06.058Z,9.02
2016-02-21T01:24:06.077Z,9.02
2016-02-21T01:25:06.095Z,9.08
2016-02-21T01:26:06.082Z,9
2016-02-21T01:27:06.085Z,9.05
2016-02-21T01:28:06.087Z,9.09
2016-02-21T01:29:06.089Z,9.03
2016-02-21T01:30:06.092Z,9.03
2016-02-21T01:31:06.080Z,9.02
2016-02-21T01:32:06.098Z,9
2016-02-21T01:33:06.100Z,9.08
2016-02-21T01:34:06.088Z,8.99
2016-02-21T01:35:06.091Z,9.03
2016-02-21T01:36:06.077Z,9.13
2016-02-21T01:37:06.080Z,9.12
2016-02-21T01:38:06.082Z,9.12
2016-02-21T01:39:06.086Z,9.09
2016-02-21T01:40:06.088Z,9.15
2016-02-21T01:41:06.091Z,9.11
2016-02-21T01:42:06.093Z,9.12
2016-02-21T01:43:06.096Z,9.13
2016-02-21T01:44:06.084Z,9.12
2016-02-21T01:45:06.087Z,9.09
2016-02-21T01:46:06.090Z,9.12
2016-02-21T01:47:06.123Z,9.11
2016-02-21T01:48:06.095Z,9.11
2016-02-21T01:49:06.097Z,9.13
2016-02-21T01:50:06.084Z,9.12
2016-02-21T01:51:06.102Z,9.12
2016-02-21T01:52:06.090Z,9.08
2016-02-21T01:53:06.093Z,9.13
2016-02-21T01:54:06.111Z,9.11
2016-02-21T01:55:06.098Z,9.12
2016-02-21T01:56:06.116Z,9.18
2016-02-21T01:57:05.931Z,9.22
2016-02-21T01:58:06.089Z,9.27
2016-02-21T01:59:06.125Z,9.19
2016-02-21T02:00:06.095Z,9.19
2016-02-21T02:01:06.098Z,9.24
2016-02-21T02:02:06.100Z,9.18
2016-02-21T02:03:06.088Z,9.18
2016-02-21T02:04:06.090Z,9.16
2016-02-21T02:05:06.094Z,9.18
2016-02-21T02:06:06.112Z,9.18
2016-02-21T02:07:06.099Z,9.18
2016-02-21T02:08:06.102Z,9.21
2016-02-21T02:09:06.104Z,9.26
2016-02-21T02:10:06.122Z,9.16
2016-02-21T02:11:06.093Z,9.15
2016-02-21T02:12:06.096Z,9.24
2016-02-21T02:13:06.099Z,9.26
2016-02-21T02:14:06.102Z,9.29
2016-02-21T02:15:06.105Z,9.27
2016-02-21T02:16:06.107Z,9.22
2016-02-21T02:17:06.109Z,9.26
2016-02-21T02:18:06.097Z,9.19
2016-02-21T02:19:06.099Z,9.19
2016-02-21T02:20:06.102Z,9.24
2016-02-21T02:21:06.105Z,9.18
2016-02-21T02:22:06.123Z,9.27
2016-02-21T02:23:06.095Z,9.24
2016-02-21T02:24:06.112Z,9.33
2016-02-21T02:25:06.115Z,9.21
2016-02-21T02:26:06.103Z,9.27
2016-02-21T02:27:06.106Z,9.24
2016-02-21T02:28:06.109Z,9.29
2016-02-21T02:29:06.111Z,9.31
2016-02-21T02:30:06.129Z,9.27
2016-02-21T02:31:06.117Z,9.27
2016-02-21T02:32:06.119Z,9.31
2016-02-21T02:33:06.106Z,9.31
2016-02-21T02:34:06.125Z,9.29
2016-02-21T02:35:06.111Z,9.37
2016-02-21T02:36:06.114Z,9.29
2016-02-21T02:37:06.133Z,9.4
2016-02-21T02:38:06.102Z,9.34
2016-02-21T02:39:06.122Z,9.3
2016-02-21T02:40:06.107Z,9.4
2016-02-21T02:41:06.110Z,9.36
2016-02-21T02:42:06.144Z,9.34
2016-02-21T02:43:06.115Z,9.42
2016-02-21T02:44:06.118Z,9.37
2016-02-21T02:45:06.120Z,9.44
2016-02-21T02:46:06.123Z,9.42
2016-02-21T02:47:06.125Z,9.47
2016-02-21T02:48:06.113Z,9.47
2016-02-21T02:49:06.131Z,9.44
2016-02-21T02:50:06.118Z,9.42
2016-02-21T02:51:06.121Z,9.44
2016-02-21T02:52:06.116Z,9.45
2016-02-21T02:53:06.094Z,9.51
2016-02-21T02:54:06.087Z,9.48
2016-02-21T02:55:06.080Z,9.54
2016-02-21T02:56:06.074Z,9.52
2016-02-21T02:57:06.070Z,9.56
2016-02-21T02:58:06.054Z,9.64
2016-02-21T02:59:06.069Z,9.59
2016-02-21T03:00:06.068Z,9.56
2016-02-21T03:01:06.068Z,9.62
2016-02-21T03:02:06.068Z,9.52
2016-02-21T03:03:06.054Z,9.56
2016-02-21T03:04:06.070Z,9.55
2016-02-21T03:05:06.056Z,9.52
2016-02-21T03:06:06.057Z,9.58
2016-02-21T03:07:06.059Z,9.52
2016-02-21T03:08:06.045Z,9.58
2016-02-21T03:09:06.048Z,9.48
2016-02-21T03:10:06.067Z,9.59
2016-02-21T03:11:06.053Z,9.55
2016-02-21T03:12:06.055Z,9.49
2016-02-21T03:13:06.042Z,9.58
2016-02-21T03:14:06.045Z,9.62
2016-02-21T03:15:06.080Z,9.58
2016-02-21T03:16:06.050Z,9.56
2016-02-21T03:17:06.053Z,9.59
2016-02-21T03:18:06.055Z,9.56
2016-02-21T03:19:06.058Z,9.55
2016-02-21T03:20:06.060Z,9.56
2016-02-21T03:21:06.048Z,9.59
2016-02-21T03:22:06.051Z,9.56
2016-02-21T03:23:06.069Z,9.56
2016-02-21T03:24:06.057Z,9.56
2016-02-21T03:25:06.059Z,9.56
2016-02-21T03:26:06.062Z,9.56
2016-02-21T03:27:06.049Z,9.58
2016-02-21T03:28:06.051Z,9.62
2016-02-21T03:29:06.054Z,9.56
2016-02-21T03:30:06.057Z,9.52
2016-02-21T03:31:06.060Z,9.52
2016-02-21T03:32:06.062Z,9.52
2016-02-21T03:33:06.081Z,9.58
2016-02-21T03:34:06.067Z,9.56
2016-02-21T03:35:06.070Z,9.62
2016-02-21T03:36:06.057Z,9.54
2016-02-21T03:37:06.060Z,9.52
2016-02-21T03:38:06.063Z,9.51
2016-02-21T03:39:06.066Z,9.54
2016-02-21T03:40:06.069Z,9.54
2016-02-21T03:41:06.071Z,9.63
2016-02-21T03:42:06.073Z,9.58
2016-02-21T03:43:06.061Z,9.56
2016-02-21T03:44:06.064Z,9.56
2016-02-21T03:45:06.066Z,9.54
2016-02-21T03:46:06.069Z,9.55
2016-02-21T03:47:06.072Z,9.54
2016-02-21T03:48:06.090Z,9.56
2016-02-21T03:49:06.061Z,9.56
2016-02-21T03:50:06.063Z,9.54
2016-02-21T03:51:06.083Z,9.52
2016-02-21T03:52:06.085Z,9.59
2016-02-21T03:53:06.072Z,9.52
2016-02-21T03:54:06.074Z,9.55
2016-02-21T03:55:06.077Z,9.59
2016-02-21T03:56:06.080Z,9.63
2016-02-21T03:57:06.082Z,9.64
2016-02-21T03:58:06.069Z,9.66
2016-02-21T03:59:06.073Z,9.73
2016-02-21T04:00:06.091Z,9.67
2016-02-21T04:01:06.078Z,9.72
2016-02-21T04:02:06.080Z,9.69
2016-02-21T04:03:06.067Z,9.69
2016-02-21T04:04:06.087Z,9.76
2016-02-21T04:05:06.073Z,9.69
2016-02-21T04:06:06.107Z,9.76
2016-02-21T04:07:06.094Z,9.7
2016-02-21T04:08:06.097Z,9.8
2016-02-21T04:09:06.083Z,9.67
2016-02-21T04:10:06.086Z,9.66
2016-02-21T04:11:06.072Z,9.7
2016-02-21T04:12:06.075Z,9.67
2016-02-21T04:13:06.079Z,9.58
2016-02-21T04:14:06.081Z,9.64
2016-02-21T04:15:06.084Z,9.64
2016-02-21T04:16:06.086Z,9.64
2016-02-21T04:17:06.089Z,9.66
2016-02-21T04:18:06.092Z,9.66
2016-02-21T04:19:06.095Z,9.59
2016-02-21T04:20:06.098Z,9.72
2016-02-21T04:21:06.100Z,9.67
2016-02-21T04:22:06.103Z,9.59
2016-02-21T04:23:06.105Z,9.66
2016-02-21T04:24:06.093Z,9.69
2016-02-21T04:25:06.111Z,9.63
2016-02-21T04:26:06.098Z,9.62
2016-02-21T04:27:06.085Z,9.64
2016-02-21T04:28:06.088Z,9.67
2016-02-21T04:29:06.091Z,9.64
2016-02-21T04:30:06.124Z,9.62
2016-02-21T04:31:06.095Z,9.64
2016-02-21T04:32:06.098Z,9.64
2016-02-21T04:33:06.087Z,9.69
2016-02-21T04:34:06.089Z,9.66
2016-02-21T04:35:06.092Z,9.66
2016-02-21T04:36:06.094Z,9.64
2016-02-21T04:37:06.097Z,9.63
2016-02-21T04:38:06.099Z,9.64
2016-02-21T04:39:06.103Z,9.62
2016-02-21T04:40:06.104Z,9.58
2016-02-21T04:41:06.123Z,9.62
2016-02-21T04:42:06.110Z,9.58
2016-02-21T04:43:06.097Z,9.64
2016-02-21T04:44:06.099Z,9.62
2016-02-21T04:45:06.086Z,9.64
2016-02-21T04:46:06.089Z,9.62
2016-02-21T04:47:06.108Z,9.69
2016-02-21T04:48:06.095Z,9.64
2016-02-21T04:49:06.097Z,9.66
2016-02-21T04:50:06.116Z,9.69
2016-02-21T04:51:06.102Z,9.69
2016-02-21T04:52:06.105Z,9.67
2016-02-21T04:53:06.107Z,9.64
2016-02-21T04:54:06.110Z,9.66
2016-02-21T04:55:06.114Z,9.74
2016-02-21T04:56:06.116Z,9.8
2016-02-21T04:57:06.119Z,9.81
2016-02-21T04:58:06.106Z,9.69
2016-02-21T04:59:06.109Z,9.7
2016-02-21T05:00:06.111Z,9.76
2016-02-21T05:01:06.114Z,9.76
2016-02-21T05:02:06.117Z,9.72
2016-02-21T05:03:06.135Z,9.77
2016-02-21T05:04:05.997Z,9.77
2016-02-21T05:05:06.125Z,9.73
2016-02-21T05:06:06.096Z,9.77
2016-02-21T05:07:06.114Z,9.84
2016-02-21T05:08:06.117Z,9.74
2016-02-21T05:09:06.136Z,9.7
2016-02-21T05:10:06.123Z,9.81
2016-02-21T05:11:06.109Z,9.73
2016-02-21T05:12:06.128Z,9.81
2016-02-21T05:13:06.130Z,9.8
2016-02-21T05:14:06.117Z,9.88
2016-02-21T05:15:06.137Z,9.94
2016-02-21T05:16:06.139Z,9.92
2016-02-21T05:17:06.126Z,9.99
2016-02-21T05:18:06.128Z,9.94
2016-02-21T05:19:06.116Z,9.95
2016-02-21T05:20:06.133Z,9.99
2016-02-21T05:21:06.121Z,9.95
2016-02-21T05:22:06.138Z,10
2016-02-21T05:23:06.142Z,9.95
2016-02-21T05:24:06.130Z,10.02
2016-02-21T05:25:06.147Z,9.97
2016-02-21T05:26:06.134Z,10.05
2016-02-21T05:27:06.137Z,10.03
2016-02-21T05:28:06.140Z,10.03
2016-02-21T05:29:06.127Z,10.03
2016-02-21T05:30:06.129Z,10.02
2016-02-21T05:31:06.133Z,10.05
2016-02-21T05:32:06.120Z,10.07
2016-02-21T05:33:06.138Z,10.05
2016-02-21T05:34:06.000Z,10.03
2016-02-21T05:35:06.142Z,10.1
2016-02-21T05:36:06.131Z,10.12
2016-02-21T05:37:06.134Z,10.2
2016-02-21T05:38:06.136Z,10.2
2016-02-21T05:39:06.139Z,10.17
2016-02-21T05:40:06.141Z,10.17
2016-02-21T05:41:06.144Z,10.13
2016-02-21T05:42:06.146Z,10.13
2016-02-21T05:43:06.133Z,10.18
2016-02-21T05:44:06.137Z,10.17
2016-02-21T05:45:06.155Z,10.27
2016-02-21T05:46:06.126Z,10.12
2016-02-21T05:47:06.144Z,10.09
2016-02-21T05:48:06.177Z,10.18
2016-02-21T05:49:05.993Z,10.12
2016-02-21T05:50:06.136Z,10.12
2016-02-21T05:51:06.139Z,10.21
2016-02-21T05:52:06.142Z,10.17
2016-02-21T05:53:06.145Z,10.09
2016-02-21T05:54:06.163Z,10.12
2016-02-21T05:55:06.149Z,10.21
2016-02-21T05:56:06.152Z,10.15
2016-02-21T05:57:06.155Z,10.17
2016-02-21T05:58:06.158Z,10.17
2016-02-21T05:59:06.146Z,10.17
2016-02-21T06:00:06.163Z,10.2
2016-02-21T06:01:06.151Z,10.13
2016-02-21T06:02:06.153Z,10.21
2016-02-21T06:03:06.157Z,10.13
2016-02-21T06:04:06.142Z,10.2
2016-02-21T06:05:06.146Z,10.17
2016-02-21T06:06:06.149Z,10.18
2016-02-21T06:07:06.167Z,10.18
2016-02-21T06:08:06.154Z,10.15
2016-02-21T06:09:06.156Z,10.2
2016-02-21T06:10:06.159Z,10.21
2016-02-21T06:11:06.145Z,10.15
2016-02-21T06:12:06.164Z,10.18
2016-02-21T06:13:06.151Z,10.17
2016-02-21T06:14:06.154Z,10.2
2016-02-21T06:15:06.157Z,10.13
2016-02-21T06:16:06.144Z,10.17
2016-02-21T06:17:06.162Z,10.25
2016-02-21T06:18:06.150Z,10.28
2016-02-21T06:19:06.168Z,10.28
2016-02-21T06:20:06.155Z,10.28
2016-02-21T06:21:06.173Z,10.39
2016-02-21T06:22:06.161Z,10.34
2016-02-21T06:23:06.163Z,10.33
2016-02-21T06:24:06.181Z,10.36
2016-02-21T06:25:06.012Z,10.45
2016-02-21T06:26:06.171Z,10.39
2016-02-21T06:27:06.158Z,10.31
2016-02-21T06:28:06.161Z,10.45
2016-02-21T06:29:06.179Z,10.39
2016-02-21T06:30:06.166Z,10.46
2016-02-21T06:31:06.168Z,10.39
2016-02-21T06:32:06.156Z,10.43
2016-02-21T06:33:06.158Z,10.49
2016-02-21T06:34:06.177Z,10.57
2016-02-21T06:35:06.165Z,10.55
2016-02-21T06:36:06.182Z,10.57
2016-02-21T06:37:06.170Z,10.57
2016-02-21T06:38:06.187Z,10.55
2016-02-21T06:39:06.159Z,10.58
2016-02-21T06:40:06.177Z,10.49
2016-02-21T06:41:06.164Z,10.49
2016-02-21T06:42:06.167Z,10.61
2016-02-21T06:43:06.186Z,10.65
2016-02-21T06:44:06.189Z,10.64
2016-02-21T06:45:06.175Z,10.65
2016-02-21T06:46:06.161Z,10.65
2016-02-21T06:47:06.164Z,10.68
2016-02-21T06:48:06.184Z,10.75
2016-02-21T06:49:06.170Z,10.76
2016-02-21T06:50:06.173Z,10.77
2016-02-21T06:51:06.175Z,10.79
2016-02-21T06:52:06.194Z,10.75
2016-02-21T06:53:06.180Z,10.83
2016-02-21T06:54:06.183Z,10.8
2016-02-21T06:55:06.172Z,10.87
2016-02-21T06:56:06.174Z,10.79
2016-02-21T06:57:06.192Z,10.72
2016-02-21T06:58:06.179Z,10.84
2016-02-21T06:59:06.182Z,10.83
2016-02-21T07:00:06.184Z,10.76
2016-02-21T07:01:06.187Z,10.82
2016-02-21T07:02:06.190Z,10.82
2016-02-21T07:03:06.177Z,10.89
2016-02-21T07:04:06.195Z,10.87
2016-02-21T07:05:06.182Z,10.8
2016-02-21T07:06:06.201Z,10.8
2016-02-21T07:07:06.187Z,10.9
2016-02-21T07:08:06.206Z,10.83
2016-02-21T07:09:06.193Z,10.86
2016-02-21T07:10:06.179Z,10.97
2016-02-21T07:11:06.182Z,10.87
2016-02-21T07:12:06.185Z,11
2016-02-21T07:13:06.203Z,10.92
2016-02-21T07:14:06.190Z,10.9
2016-02-21T07:15:06.193Z,10.94
2016-02-21T07:16:06.180Z,10.95
2016-02-21T07:17:06.183Z,10.95
2016-02-21T07:18:06.186Z,11.04
2016-02-21T07:19:06.173Z,11.04
2016-02-21T07:20:06.206Z,10.97
2016-02-21T07:21:06.194Z,11
2016-02-21T07:22:06.197Z,11
2016-02-21T07:23:06.199Z,11.07
2016-02-21T07:24:06.186Z,11.02
2016-02-21T07:25:06.205Z,11.1
2016-02-21T07:26:06.191Z,11.07
2016-02-21T07:27:06.195Z,11.05
2016-02-21T07:28:06.213Z,11.07
2016-02-21T07:29:06.184Z,11.07
2016-02-21T07:30:06.202Z,11.07
2016-02-21T07:31:06.204Z,11.04
2016-02-21T07:32:06.193Z,11.07
2016-02-21T07:33:06.211Z,11.1
2016-02-21T07:34:06.198Z,11.1
2016-02-21T07:35:06.200Z,11.07
2016-02-21T07:36:06.203Z,11.08
2016-02-21T07:37:06.206Z,11.01
2016-02-21T07:38:06.193Z,11.07
2016-02-21T07:39:06.196Z,11.02
2016-02-21T07:40:06.215Z,11.1
2016-02-21T07:41:06.201Z,11.1
2016-02-21T07:42:06.235Z,11.12
2016-02-21T07:43:06.206Z,11.12
2016-02-21T07:44:06.209Z,11.13
2016-02-21T07:45:06.195Z,11.19
2016-02-21T07:46:06.199Z,11.25
2016-02-21T07:47:06.217Z,11.18
2016-02-21T07:48:06.204Z,11.3
2016-02-21T07:49:06.206Z,11.23
2016-02-21T07:50:06.209Z,11.31
2016-02-21T07:51:06.211Z,11.3
2016-02-21T07:52:06.214Z,11.35
2016-02-21T07:53:06.062Z,11.33
2016-02-21T07:54:06.205Z,11.34
2016-02-21T07:55:06.208Z,11.34
2016-02-21T07:56:06.225Z,11.33
2016-02-21T07:57:06.213Z,11.38
2016-02-21T07:58:06.215Z,11.35
2016-02-21T07:59:06.219Z,11.37
2016-02-21T08:00:06.221Z,11.43
2016-02-21T08:01:06.224Z,11.41
2016-02-21T08:02:06.227Z,11.49
2016-02-21T08:03:06.229Z,11.52
2016-02-21T08:04:06.216Z,11.49
2016-02-21T08:05:06.219Z,11.41
2016-02-21T08:06:06.221Z,11.53
2016-02-21T08:07:06.224Z,11.58
2016-02-21T08:08:06.227Z,11.55
2016-02-21T08:09:06.230Z,11.52
2016-02-21T08:10:06.232Z,11.48
2016-02-21T08:11:06.219Z,11.51
2016-02-21T08:12:06.222Z,11.58
2016-02-21T08:13:06.224Z,11.55
2016-02-21T08:14:06.212Z,11.52
2016-02-21T08:15:06.230Z,11.52
2016-02-21T08:16:06.232Z,11.58
2016-02-21T08:17:06.235Z,11.62
2016-02-21T08:18:06.238Z,11.68
2016-02-21T08:19:06.240Z,11.67
2016-02-21T08:20:06.228Z,11.73
2016-02-21T08:21:06.230Z,11.74
2016-02-21T08:22:06.234Z,11.76
2016-02-21T08:23:06.236Z,11.83
2016-02-21T08:24:06.239Z,11.88
2016-02-21T08:25:06.225Z,11.88
2016-02-21T08:26:06.228Z,11.89
2016-02-21T08:27:06.246Z,11.96
2016-02-21T08:28:06.233Z,11.91
2016-02-21T08:29:06.236Z,12
2016-02-21T08:30:06.239Z,12.05
2016-02-21T08:31:06.242Z,12.1
2016-02-21T08:32:06.244Z,12.23
2016-02-21T08:33:06.247Z,12.2
2016-02-21T08:34:06.249Z,12.32
2016-02-21T08:35:06.253Z,12.36
2016-02-21T08:36:06.239Z,12.48
2016-02-21T08:37:06.243Z,12.53
2016-02-21T08:38:06.245Z,12.47
2016-02-21T08:39:06.248Z,12.58
2016-02-21T08:40:06.250Z,12.62
2016-02-21T08:41:06.253Z,12.63
2016-02-21T08:42:06.256Z,12.66
2016-02-21T08:43:06.242Z,12.69
2016-02-21T08:44:06.246Z,12.62
2016-02-21T08:45:06.248Z,12.53
2016-02-21T08:46:06.251Z,12.45
2016-02-21T08:47:06.269Z,12.5
2016-02-21T08:48:06.256Z,12.39
2016-02-21T08:49:06.259Z,12.37
2016-02-21T08:50:06.261Z,12.3
2016-02-21T08:51:06.281Z,12.33
2016-02-21T08:52:06.267Z,12.28
2016-02-21T08:53:06.270Z,12.3
2016-02-21T08:54:06.256Z,12.32
2016-02-21T08:55:06.259Z,12.32
2016-02-21T08:56:06.261Z,12.25
2016-02-21T08:57:06.264Z,12.17
2016-02-21T08:58:06.267Z,12.23
2016-02-21T08:59:06.286Z,12.18
2016-02-21T09:00:06.273Z,12.21
2016-02-21T09:01:06.260Z,12.25
2016-02-21T09:02:06.263Z,12.28
2016-02-21T09:03:06.266Z,12.25
2016-02-21T09:04:06.268Z,12.2
2016-02-21T09:05:06.271Z,12.23
2016-02-21T09:06:06.274Z,12.35
2016-02-21T09:07:06.291Z,12.28
2016-02-21T09:08:06.279Z,12.33
2016-02-21T09:09:06.282Z,12.32
2016-02-21T09:10:06.285Z,12.36
2016-02-21T09:11:06.271Z,12.28
2016-02-21T09:12:06.274Z,12.29
2016-02-21T09:13:06.292Z,12.26
2016-02-21T09:14:06.279Z,12.29
2016-02-21T09:15:06.282Z,12.3
2016-02-21T09:16:06.285Z,12.32
2016-02-21T09:17:06.303Z,12.21
2016-02-21T09:18:06.306Z,12.28
2016-02-21T09:19:06.292Z,12.25
2016-02-21T09:20:06.279Z,12.17
2016-02-21T09:21:06.282Z,12.1
2016-02-21T09:22:06.316Z,12.12
2016-02-21T09:23:06.288Z,12.12
2016-02-21T09:24:06.290Z,12.11
2016-02-21T09:25:06.292Z,12.15
2016-02-21T09:26:06.296Z,12.12
2016-02-21T09:27:06.298Z,12.12
2016-02-21T09:28:06.301Z,12.11
2016-02-21T09:29:06.288Z,12.12
2016-02-21T09:30:06.306Z,12.11
2016-02-21T09:31:06.309Z,12
2016-02-21T09:32:06.311Z,11.97
2016-02-21T09:33:06.299Z,12.03
2016-02-21T09:34:06.302Z,11.93
2016-02-21T09:35:06.305Z,11.95
2016-02-21T09:36:06.307Z,11.99
2016-02-21T09:37:06.325Z,11.99
2016-02-21T09:38:06.297Z,11.96
2016-02-21T09:39:06.299Z,11.88
2016-02-21T09:40:06.302Z,11.95
2016-02-21T09:41:06.304Z,11.88
2016-02-21T09:42:06.324Z,11.88
2016-02-21T09:43:06.310Z,11.97
2016-02-21T09:44:06.313Z,11.95
2016-02-21T09:45:06.315Z,11.89
2016-02-21T09:46:06.318Z,11.95
2016-02-21T09:47:06.321Z,11.97
2016-02-21T09:48:06.308Z,11.95
2016-02-21T09:49:06.312Z,11.89
2016-02-21T09:50:06.314Z,11.99
2016-02-21T09:51:06.316Z,11.95
2016-02-21T09:52:06.350Z,11.89
2016-02-21T09:53:06.322Z,11.99
2016-02-21T09:54:06.339Z,11.97
2016-02-21T09:55:06.328Z,11.95
2016-02-21T09:56:06.330Z,11.96
2016-02-21T09:57:06.333Z,11.97
2016-02-21T09:58:06.335Z,11.95
2016-02-21T09:59:06.338Z,12.03
2016-02-21T10:00:06.325Z,11.99
2016-02-21T10:01:06.344Z,12.12
2016-02-21T10:02:06.377Z,12.11
2016-02-21T10:03:06.333Z,12.23
2016-02-21T10:04:06.335Z,12.35
2016-02-21T10:05:06.323Z,12.4
2016-02-21T10:06:06.357Z,12.37
2016-02-21T10:07:06.328Z,12.51
2016-02-21T10:08:06.331Z,12.61
2016-02-21T10:09:06.333Z,12.72
2016-02-21T10:10:06.336Z,12.76
2016-02-21T10:11:06.355Z,12.84
2016-02-21T10:12:06.342Z,12.93
2016-02-21T10:13:06.345Z,13.08
2016-02-21T10:14:06.362Z,13.08
2016-02-21T10:15:06.350Z,13.01
2016-02-21T10:16:06.352Z,13.19
2016-02-21T10:17:06.340Z,13.12
2016-02-21T10:18:06.358Z,13.27
2016-02-21T10:19:06.360Z,13.17
2016-02-21T10:20:06.363Z,13.17
2016-02-21T10:21:06.351Z,13.21
2016-02-21T10:22:06.354Z,13.39
2016-02-21T10:23:06.357Z,13.42
2016-02-21T10:24:06.359Z,13.5
2016-02-21T10:25:06.346Z,13.55
2016-02-21T10:26:06.364Z,13.61
2016-02-21T10:27:06.351Z,13.67
2016-02-21T10:28:06.354Z,13.71
2016-02-21T10:29:06.216Z,13.8
2016-02-21T10:30:06.375Z,13.76
2016-02-21T10:31:06.362Z,13.82
2016-02-21T10:32:06.365Z,13.86
2016-02-21T10:33:06.367Z,14.07
2016-02-21T10:34:06.370Z,14.04
2016-02-21T10:35:06.389Z,14.15
2016-02-21T10:36:06.376Z,14.18
2016-02-21T10:37:06.378Z,14.22
2016-02-21T10:38:06.365Z,14.16
2016-02-21T10:39:06.383Z,14.13
2016-02-21T10:40:06.386Z,14.04
2016-02-21T10:41:06.373Z,14.04
2016-02-21T10:42:06.392Z,14.04
2016-02-21T10:43:06.394Z,14
2016-02-21T10:44:06.381Z,13.98
2016-02-21T10:45:06.383Z,13.95
2016-02-21T10:46:06.386Z,13.97
2016-02-21T10:47:06.389Z,13.89
2016-02-21T10:48:06.392Z,13.79
2016-02-21T10:49:06.394Z,13.85
2016-02-21T10:50:06.413Z,13.73
2016-02-21T10:51:06.399Z,13.86
2016-02-21T10:52:06.402Z,13.94
2016-02-21T10:53:06.405Z,13.86
2016-02-21T10:54:06.408Z,13.85
2016-02-21T10:55:06.396Z,13.95
2016-02-21T10:56:06.398Z,14.04
2016-02-21T10:57:06.401Z,14
2016-02-21T10:58:06.418Z,14.05
2016-02-21T10:59:06.406Z,14.07
2016-02-21T11:00:06.408Z,14.15
2016-02-21T11:01:06.412Z,14.03
2016-02-21T11:02:06.414Z,14.05
2016-02-21T11:03:06.417Z,14.13
2016-02-21T11:04:06.404Z,14.11
2016-02-21T11:05:06.422Z,14.15
2016-02-21T11:06:06.409Z,14.26
2016-02-21T11:07:06.412Z,14.22
2016-02-21T11:08:06.414Z,14.25
2016-02-21T11:09:06.417Z,14.33
2016-02-21T11:10:06.420Z,14.34
2016-02-21T11:11:06.422Z,14.33
2016-02-21T11:12:06.425Z,14.41
2016-02-21T11:13:06.427Z,14.43
2016-02-21T11:14:06.430Z,14.45
2016-02-21T11:15:06.433Z,14.44
2016-02-21T11:16:06.436Z,14.44
2016-02-21T11:17:06.439Z,14.52
2016-02-21T11:18:06.442Z,14.51
2016-02-21T11:19:06.444Z,14.51
2016-02-21T11:20:06.432Z,14.49
2016-02-21T11:21:06.449Z,14.55
2016-02-21T11:22:06.437Z,14.55
2016-02-21T11:23:06.440Z,14.51
2016-02-21T11:24:06.442Z,14.56
2016-02-21T11:25:06.429Z,14.59
2016-02-21T11:26:06.448Z,14.7
2016-02-21T11:27:06.466Z,14.7
2016-02-21T11:28:06.453Z,14.74
2016-02-21T11:29:06.456Z,14.79
2016-02-21T11:30:06.459Z,14.77
2016-02-21T11:31:06.461Z,14.82
2016-02-21T11:32:06.464Z,14.82
2016-02-21T11:33:06.467Z,14.81
2016-02-21T11:34:06.470Z,14.93
2016-02-21T11:35:06.518Z,15.04
2016-02-21T11:36:06.458Z,15.14
2016-02-21T11:37:06.461Z,15.11
2016-02-21T11:38:06.464Z,15.23
2016-02-21T11:39:06.483Z,15.37
2016-02-21T11:40:06.469Z,15.33
2016-02-21T11:41:06.472Z,15.54
2016-02-21T11:42:06.475Z,15.75
2016-02-21T11:43:06.478Z,15.8
2016-02-21T11:44:06.480Z,15.88
2016-02-21T11:45:06.483Z,15.94
2016-02-21T11:46:06.485Z,16.05
2016-02-21T11:47:06.504Z,16.08
2016-02-21T11:48:06.507Z,16.22
2016-02-21T11:49:06.494Z,16.34
2016-02-21T11:50:06.496Z,16.32
2016-02-21T11:51:06.499Z,16.36
2016-02-21T11:52:06.502Z,16.44
2016-02-21T11:53:06.504Z,16.51
2016-02-21T11:54:06.507Z,16.46
2016-02-21T11:55:06.510Z,16.51
2016-02-21T11:56:06.340Z,16.46
2016-02-21T11:57:06.512Z,16.44
2016-02-21T11:58:06.500Z,16.4
2016-02-21T11:59:06.489Z,16.4
2016-02-21T12:00:06.460Z,16.44
2016-02-21T12:01:06.480Z,16.43
2016-02-21T12:02:07.516Z,16.51
2016-02-21T12:03:06.467Z,16.5
2016-02-21T12:04:06.433Z,16.51
2016-02-21T12:05:06.446Z,16.5
2016-02-21T12:06:06.428Z,16.62
2016-02-21T12:07:06.426Z,16.72
2016-02-21T12:08:06.426Z,16.74
2016-02-21T12:09:06.474Z,16.73
2016-02-21T12:10:06.428Z,16.66
2016-02-21T12:11:06.444Z,16.66
2016-02-21T12:12:06.430Z,16.72
2016-02-21T12:13:06.447Z,16.76
2016-02-21T12:14:06.434Z,16.72
2016-02-21T12:15:06.435Z,16.8
2016-02-21T12:16:06.438Z,16.95
2016-02-21T12:17:06.439Z,17.04
2016-02-21T12:18:06.442Z,17.14
2016-02-21T12:19:06.460Z,17.23
2016-02-21T12:20:06.447Z,17.3
2016-02-21T12:21:06.450Z,17.39
2016-02-21T12:22:06.453Z,17.44
2016-02-21T12:23:06.456Z,17.56
2016-02-21T12:24:06.459Z,17.72
2016-02-21T12:25:06.461Z,17.69
2016-02-21T12:26:06.464Z,17.8
2016-02-21T12:27:06.451Z,17.71
2016-02-21T12:28:06.469Z,17.6
2016-02-21T12:29:06.472Z,17.44
2016-02-21T12:30:06.474Z,17.41
2016-02-21T12:31:06.477Z,17.37
2016-02-21T12:32:06.480Z,17.3
2016-02-21T12:33:06.357Z,17.34
2016-02-21T12:34:06.486Z,17.24
2016-02-21T12:35:06.488Z,17.19
2016-02-21T12:36:06.490Z,17.09
2016-02-21T12:37:06.493Z,16.95
2016-02-21T12:38:06.496Z,16.91
2016-02-21T12:39:06.499Z,16.86
2016-02-21T12:40:06.486Z,16.94
2016-02-21T12:41:06.504Z,16.86
2016-02-21T12:42:06.507Z,16.77
2016-02-21T12:43:06.509Z,16.86
2016-02-21T12:44:06.512Z,16.66
2016-02-21T12:45:06.515Z,16.61
2016-02-21T12:46:06.518Z,16.59
2016-02-21T12:47:06.520Z,16.47
2016-02-21T12:48:06.522Z,16.49
2016-02-21T12:49:06.525Z,16.4
2016-02-21T12:50:06.529Z,16.39
2016-02-21T12:51:06.516Z,16.46
2016-02-21T12:52:06.533Z,16.41
2016-02-21T12:53:06.537Z,16.44
2016-02-21T12:54:06.524Z,16.43
2016-02-21T12:55:06.526Z,16.4
2016-02-21T12:56:06.545Z,16.26
2016-02-21T12:57:06.547Z,16.32
2016-02-21T12:58:06.535Z,16.28
2016-02-21T12:59:06.538Z,16.31
2016-02-21T13:00:06.555Z,16.32
2016-02-21T13:01:06.558Z,16.34
2016-02-21T13:02:06.560Z,16.29
2016-02-21T13:03:06.563Z,16.25
2016-02-21T13:04:06.566Z,16.26
2016-02-21T13:05:06.569Z,16.21
2016-02-21T13:06:06.572Z,16.16